Time;durP1;ratioP1;P1;durP2;ratioP2;P2;SDS_P1;SDS_P2;PMS_P1;PMS_P2;Temp;Humidity;BMP_temperature;BMP_pressure;BME280_temperature;BME280_humidity;BME280_pressure;Samples;Min_cycle;Max_cycle;Signal;HPM_P1;HPM_P2
2023/03/14 00:01:44;;;;;;;3.63;1.40;;;;;;;11.23;56.55;97817.22;10427260;28;20048;-62
2023/03/14 00:06:46;;;;;;;7.03;1.75;;;;;;;11.19;57.03;97841.25;10431536;28;20052;-63
2023/03/14 00:11:48;;;;;;;5.78;1.70;;;;;;;11.18;56.97;97835.19;10429623;28;20049;-62
2023/03/14 00:16:50;;;;;;;5.65;1.70;;;;;;;11.19;56.51;97842.03;10424282;28;20064;-63
2023/03/14 00:21:51;;;;;;;7.82;2.13;;;;;;;11.18;56.96;97835.19;10428858;28;20397;-63
2023/03/14 00:26:53;;;;;;;7.80;1.90;;;;;;;11.14;56.80;97853.91;10429965;28;20048;-62
2023/03/14 00:31:54;;;;;;;7.85;2.10;;;;;;;11.14;56.73;97843.44;10424307;28;20056;-63
2023/03/14 00:36:56;;;;;;;8.57;2.08;;;;;;;11.25;56.55;97815.28;10429485;28;20449;-62
2023/03/14 00:41:58;;;;;;;9.18;2.00;;;;;;;11.20;56.68;97798.38;10408426;28;20049;-62
2023/03/14 00:47:00;;;;;;;8.50;2.05;;;;;;;11.21;56.51;97773.88;10427678;28;20051;-63
2023/03/14 00:52:02;;;;;;;12.13;2.10;;;;;;;11.16;56.68;97790.03;10422623;28;20055;-63
2023/03/14 00:57:03;;;;;;;9.23;2.17;;;;;;;11.02;58.65;97787.03;10425410;28;20052;-62
2023/03/14 01:02:05;;;;;;;11.00;2.72;;;;;;;10.74;60.50;97796.69;10427605;28;20834;-63
2023/03/14 01:07:07;;;;;;;8.65;2.30;;;;;;;10.66;61.08;97807.03;10440066;28;20048;-62
2023/03/14 01:12:08;;;;;;;8.70;2.22;;;;;;;10.61;61.66;97783.09;10424204;28;20296;-62
2023/03/14 01:17:10;;;;;;;10.02;2.20;;;;;;;10.45;62.28;97785.50;10427051;28;20444;-62
2023/03/14 01:22:11;;;;;;;13.18;2.50;;;;;;;10.48;62.37;97785.25;10422907;28;20045;-62
2023/03/14 01:27:13;;;;;;;9.77;2.28;;;;;;;10.42;62.48;97768.31;10425552;28;20044;-62
2023/03/14 01:32:15;;;;;;;10.27;2.30;;;;;;;10.31;62.75;97746.78;10428090;28;20085;-63
2023/03/14 01:37:16;;;;;;;12.27;2.50;;;;;;;10.34;62.33;97746.47;10431389;28;20053;-62
2023/03/14 01:42:18;;;;;;;10.40;2.00;;;;;;;10.29;62.50;97746.09;10434109;28;20489;-62
2023/03/14 01:47:20;;;;;;;9.60;2.20;;;;;;;10.37;62.16;97744.41;10436016;28;20059;-63
2023/03/14 01:52:36;;;;;;;10.18;2.10;;;;;;;10.36;61.88;97747.97;10435809;28;20037;-62
2023/03/14 01:57:56;;;;;;;11.43;2.40;;;;;;;10.45;61.57;97743.69;10430556;28;20037;-63
2023/03/14 02:03:06;;;;;;;13.15;2.40;;;;;;;10.46;61.51;97753.19;10416034;28;20060;-62
2023/03/14 02:08:13;;;;;;;7.72;2.15;;;;;;;10.46;61.22;97753.19;10436318;28;20136;-62
2023/03/14 02:13:18;;;;;;;9.10;2.33;;;;;;;10.49;61.00;97737.22;10429260;28;20059;-63
2023/03/14 02:18:19;;;;;;;11.25;2.40;;;;;;;10.48;60.46;97732.97;10432454;28;20060;-62
2023/03/14 02:23:51;;;;;;;7.60;1.83;;;;;;;10.28;60.38;97732.19;10434895;28;20056;-63
2023/03/14 02:28:53;;;;;;;;;;;;;;;9.91;61.35;97726.13;10433277;28;20049;-62
2023/03/14 02:33:56;;;;;;;6.53;1.70;;;;;;;10.20;60.40;97707.75;10431848;28;19924;-62
2023/03/14 02:39:27;;;;;;;8.25;2.17;;;;;;;10.14;60.40;97690.88;10434608;28;20976;-62
2023/03/14 02:44:29;;;;;;;;;;;;;;;9.70;61.05;97677.66;10431870;28;20045;-63
2023/03/14 02:49:33;;;;;;;8.38;2.15;;;;;;;9.89;60.28;97667.19;10430053;28;19956;-63
2023/03/14 02:54:35;;;;;;;6.72;1.83;;;;;;;9.85;60.32;97673.66;10433464;28;20045;-62
2023/03/14 02:59:36;;;;;;;6.22;1.90;;;;;;;9.74;59.97;97664.22;10430195;28;20041;-62
2023/03/14 03:04:38;;;;;;;8.95;1.90;;;;;;;9.73;59.88;97666.97;10438521;28;20049;-63
2023/03/14 03:09:40;;;;;;;9.13;2.30;;;;;;;9.68;59.74;97667.38;10435266;28;20082;-62
2023/03/14 03:14:41;;;;;;;9.45;1.92;;;;;;;9.62;60.10;97673.97;10419793;28;20037;-62
2023/03/14 03:19:43;;;;;;;8.77;2.00;;;;;;;9.58;60.03;97677.78;10437751;28;20416;-62
2023/03/14 03:24:45;;;;;;;7.50;1.90;;;;;;;9.59;59.91;97679.44;10436917;28;20045;-62
2023/03/14 03:29:47;;;;;;;8.02;1.90;;;;;;;9.55;59.79;97662.41;10437738;28;20236;-62
2023/03/14 03:34:49;;;;;;;6.43;1.85;;;;;;;9.49;60.12;97652.56;10437706;28;20106;-62
2023/03/14 03:39:51;;;;;;;7.00;2.03;;;;;;;9.52;59.94;97647.03;10439305;28;20493;-62
2023/03/14 03:44:53;;;;;;;9.82;2.40;;;;;;;9.44;59.95;97648.72;10442234;28;20053;-62
2023/03/14 03:49:54;;;;;;;8.93;2.05;;;;;;;9.34;60.19;97651.31;10434523;28;20056;-62
2023/03/14 03:54:56;;;;;;;4.68;1.55;;;;;;;9.53;60.06;97650.47;10433814;28;20505;-62
2023/03/14 03:59:58;;;;;;;6.43;1.60;;;;;;;9.73;59.46;97638.25;10432434;28;20040;-62
2023/03/14 04:04:59;;;;;;;4.28;1.35;;;;;;;9.90;59.05;97632.28;10429580;28;20059;-62
2023/03/14 04:10:01;;;;;;;6.07;1.55;;;;;;;9.97;58.89;97635.97;10428232;28;20076;-62
2023/03/14 04:15:03;;;;;;;7.60;1.90;;;;;;;10.00;58.60;97625.22;10439958;28;20052;-62
2023/03/14 04:20:10;;;;;;;4.78;1.40;;;;;;;10.07;58.71;97632.38;10424733;28;20304;-61
2023/03/14 04:25:12;;;;;;;4.03;1.40;;;;;;;10.06;58.87;97627.25;10425435;28;20057;-62
2023/03/14 04:30:14;;;;;;;5.68;1.58;;;;;;;10.06;58.91;97622.88;10428343;28;20114;-62
2023/03/14 04:35:15;;;;;;;5.35;2.10;;;;;;;10.11;58.82;97612.81;10427460;28;20057;-62
2023/03/14 04:40:18;;;;;;;5.80;1.88;;;;;;;10.03;59.16;97610.13;10428776;28;20041;-63
2023/03/14 04:45:19;;;;;;;4.75;1.60;;;;;;;10.14;58.92;97609.06;10429266;28;20057;-63
2023/03/14 04:50:21;;;;;;;4.68;1.77;;;;;;;10.20;58.66;97596.25;10428825;28;20044;-62
2023/03/14 04:55:22;;;;;;;4.70;1.60;;;;;;;10.20;58.57;97603.28;10427883;28;20040;-63
2023/03/14 05:00:25;;;;;;;5.03;1.50;;;;;;;10.14;58.75;97603.84;10428548;28;20056;-63
2023/03/14 05:05:26;;;;;;;3.42;1.50;;;;;;;10.12;58.36;97614.44;10430810;28;20548;-62
2023/03/14 05:10:28;;;;;;;3.67;1.50;;;;;;;10.18;58.53;97602.59;10427317;28;20592;-62
2023/03/14 05:15:29;;;;;;;4.10;1.40;;;;;;;10.15;58.43;97605.50;10443333;28;20053;-62
2023/03/14 05:20:31;;;;;;;4.50;1.40;;;;;;;10.04;58.64;97600.47;10429467;28;20075;-62
2023/03/14 05:25:33;;;;;;;2.90;1.10;;;;;;;10.05;58.81;97589.91;10433121;28;20709;-62
2023/03/14 05:30:35;;;;;;;5.80;1.33;;;;;;;10.02;58.77;97594.56;10431360;28;20049;-62
2023/03/14 05:35:36;;;;;;;4.55;1.40;;;;;;;10.04;58.68;97592.63;10442246;28;20404;-62
2023/03/14 05:40:38;;;;;;;6.13;2.58;;;;;;;9.97;58.63;97591.59;10435202;28;20395;-62
2023/03/14 05:45:40;;;;;;;5.10;2.05;;;;;;;10.00;58.83;97586.06;10431025;28;20044;-62
2023/03/14 05:50:42;;;;;;;2.65;1.00;;;;;;;9.68;58.50;97575.22;10428169;28;20048;-62
2023/03/14 05:55:44;;;;;;;2.00;1.05;;;;;;;9.65;58.43;97566.66;10430662;28;20045;-63
2023/03/14 06:00:46;;;;;;;2.42;0.90;;;;;;;9.49;58.35;97563.84;10433798;28;20103;-63
2023/03/14 06:05:50;;;;;;;1.83;0.80;;;;;;;9.38;58.16;97556.16;10432214;28;20053;-61
2023/03/14 06:10:52;;;;;;;1.45;0.73;;;;;;;9.27;58.61;97553.75;10419086;28;20479;-63
2023/03/14 06:15:54;;;;;;;1.75;0.88;;;;;;;9.40;58.30;97556.06;10437611;28;20045;-62
2023/03/14 06:20:56;;;;;;;0.90;0.70;;;;;;;9.36;58.88;97547.66;10433035;28;20431;-62
2023/03/14 06:25:58;;;;;;;1.92;1.00;;;;;;;9.42;58.85;97541.88;10432602;28;20052;-63
2023/03/14 06:31:00;;;;;;;1.83;0.73;;;;;;;9.40;58.90;97543.00;10434211;28;20174;-62
2023/03/14 06:36:02;;;;;;;1.95;0.80;;;;;;;9.43;59.20;97537.50;10438058;28;20229;-62
2023/03/14 06:41:05;;;;;;;3.97;0.93;;;;;;;9.64;59.12;97525.06;10429922;28;20398;-62
2023/03/14 06:46:07;;;;;;;1.80;0.82;;;;;;;9.85;58.55;97533.50;10431553;28;20045;-62
2023/03/14 06:51:09;;;;;;;2.30;0.80;;;;;;;10.07;58.16;97527.06;10429912;28;20044;-62
2023/03/14 06:56:11;;;;;;;2.67;1.02;;;;;;;10.43;57.80;97524.34;10433630;28;20041;-67
2023/03/14 07:01:22;;;;;;;2.38;0.80;;;;;;;10.63;57.17;97517.16;10431535;28;20056;-68
2023/03/14 07:06:25;;;;;;;3.38;1.20;;;;;;;10.68;57.31;97533.25;10430478;28;20088;-68
2023/03/14 07:11:26;;;;;;;2.97;1.05;;;;;;;10.79;56.93;97527.75;10433603;28;20052;-68
2023/03/14 07:16:32;;;;;;;1.77;0.80;;;;;;;10.72;57.04;97528.53;10433572;28;20040;-69
2023/03/14 07:21:34;;;;;;;3.22;1.00;;;;;;;10.76;56.95;97535.91;10428531;28;20059;-70
2023/03/14 07:26:36;;;;;;;2.00;0.82;;;;;;;10.88;57.22;97539.13;10429193;28;20420;-69
2023/03/14 07:31:37;;;;;;;2.75;1.00;;;;;;;10.94;56.88;97541.94;10432243;28;20056;-70
2023/03/14 07:36:39;;;;;;;2.08;0.90;;;;;;;10.88;57.04;97547.78;10431552;28;20064;-68
2023/03/14 07:41:41;;;;;;;2.60;0.93;;;;;;;10.90;56.98;97545.84;10411978;28;20523;-68
2023/03/14 07:46:43;;;;;;;1.35;0.73;;;;;;;11.08;56.63;97551.06;10430312;28;20791;-69
2023/03/14 07:51:48;;;;;;;2.10;0.80;;;;;;;11.21;56.52;97554.91;10427962;28;20044;-68
2023/03/14 07:56:49;;;;;;;2.63;1.02;;;;;;;11.59;55.76;97552.88;10428374;28;20504;-68
2023/03/14 08:01:51;;;;;;;2.17;0.90;;;;;;;11.74;55.41;97549.53;10426457;28;20059;-68
2023/03/14 08:06:54;;;;;;;1.67;0.75;;;;;;;11.69;55.45;97548.34;10424495;28;20064;-68
2023/03/14 08:11:55;;;;;;;0.88;0.70;;;;;;;12.06;55.03;97546.22;10430595;28;20076;-68
2023/03/14 08:16:59;;;;;;;1.23;0.60;;;;;;;12.41;54.14;97538.16;10429122;28;20048;-68
2023/03/14 08:22:00;;;;;;;1.67;0.68;;;;;;;12.17;54.17;97545.94;10427207;28;20044;-69
2023/03/14 08:27:03;;;;;;;2.10;0.73;;;;;;;11.82;54.89;97551.34;10425805;28;20084;-68
2023/03/14 08:32:05;;;;;;;2.33;0.77;;;;;;;11.72;54.87;97548.03;10425521;28;20130;-68
2023/03/14 08:37:07;;;;;;;0.70;0.47;;;;;;;11.76;54.81;97558.06;10423175;28;20497;-68
2023/03/14 08:42:24;;;;;;;1.13;0.60;;;;;;;11.52;55.39;97552.66;10427779;28;20045;-68
2023/03/14 08:47:26;;;;;;;1.63;0.63;;;;;;;11.98;54.66;97559.28;10426635;28;20059;-68
2023/03/14 08:52:27;;;;;;;1.45;0.70;;;;;;;12.17;54.15;97556.41;10427142;28;20045;-68
2023/03/14 08:57:29;;;;;;;0.70;0.40;;;;;;;11.92;54.58;97565.16;10430125;28;20071;-68
2023/03/14 09:02:31;;;;;;;1.00;0.60;;;;;;;11.98;54.84;97569.75;10427804;28;20043;-67
2023/03/14 09:07:33;;;;;;;0.52;0.45;;;;;;;12.03;54.99;97578.78;10408977;28;20048;-68
2023/03/14 09:12:34;;;;;;;0.80;0.50;;;;;;;12.04;54.65;97574.38;10424987;28;20924;-68
2023/03/14 09:17:36;;;;;;;0.50;0.40;;;;;;;12.05;54.83;97561.09;10426829;28;20049;-68
2023/03/14 09:22:38;;;;;;;1.33;0.50;;;;;;;12.25;54.57;97566.94;10448490;28;20106;-68
2023/03/14 09:27:39;;;;;;;0.65;0.50;;;;;;;12.18;54.68;97570.31;10425890;28;20083;-68
2023/03/14 09:32:41;;;;;;;1.02;0.45;;;;;;;12.20;54.50;97577.06;10462873;28;20048;-69
2023/03/14 09:37:43;;;;;;;0.82;0.40;;;;;;;12.13;54.55;97583.88;10430676;28;20049;-67
2023/03/14 09:42:44;;;;;;;0.80;0.43;;;;;;;12.36;54.38;97577.13;10425696;28;20041;-68
2023/03/14 09:47:47;;;;;;;0.52;0.52;;;;;;;12.49;53.81;97584.53;10430955;28;20062;-68
2023/03/14 09:53:06;;;;;;;0.60;0.50;;;;;;;12.44;53.62;97587.63;10449913;28;20060;-67
2023/03/14 09:58:20;;;;;;;0.50;0.50;;;;;;;12.32;53.80;97588.09;10432207;28;20051;-67
2023/03/14 10:03:33;;;;;;;1.55;0.60;;;;;;;12.48;54.31;97583.72;10433442;28;20071;-67
2023/03/14 10:08:34;;;;;;;2.08;0.60;;;;;;;12.53;54.80;97589.31;10437391;28;20416;-66
2023/03/14 10:14:01;;;;;;;3.15;0.98;;;;;;;12.38;55.46;97590.06;10432925;28;20056;-67
2023/03/14 10:19:06;;;;;;;0.63;0.50;;;;;;;12.07;56.29;97595.00;10432524;28;20057;-67
2023/03/14 10:24:18;;;;;;;1.35;0.63;;;;;;;12.14;56.40;97594.22;10432977;28;20053;-67
2023/03/14 10:29:24;;;;;;;2.63;0.55;;;;;;;12.11;55.94;97589.28;10453019;28;20049;-67
2023/03/14 10:34:35;;;;;;;1.77;0.65;;;;;;;12.06;56.67;97603.84;10432218;28;20682;-68
2023/03/14 10:39:46;;;;;;;1.38;0.60;;;;;;;12.14;56.86;97599.47;10469719;28;20048;-68
2023/03/14 10:44:55;;;;;;;2.60;1.10;;;;;;;11.99;57.62;97608.88;10431163;28;20060;-68
2023/03/14 10:50:14;;;;;;;0.50;0.38;;;;;;;11.92;58.23;97610.50;10466611;28;20053;-68
2023/03/14 10:55:16;;;;;;;0.50;0.50;;;;;;;11.75;58.66;97614.00;10433566;28;20056;-67
2023/03/14 11:00:21;;;;;;;1.13;0.70;;;;;;;11.80;58.74;97610.94;10445437;28;20056;-67
2023/03/14 11:05:59;;;;;;;1.75;1.13;;;;;;;11.61;59.01;97618.97;10431458;28;20497;-67
2023/03/14 11:11:30;;;;;;;2.45;1.00;;;;;;;11.54;59.66;97658.03;10462651;28;20079;-67
2023/03/14 11:16:56;;;;;;;1.67;0.68;;;;;;;10.11;62.16;97745.19;10443123;28;20045;-67
2023/03/14 11:22:19;;;;;;;3.80;0.90;;;;;;;9.64;63.08;97780.81;10448265;28;20393;-67
2023/03/14 11:27:39;;;;;;;1.45;0.70;;;;;;;9.54;63.60;97817.31;10472022;28;20050;-68
2023/03/14 11:32:47;;;;;;;1.63;0.60;;;;;;;9.20;63.38;97843.94;10458817;28;20057;-67
2023/03/14 11:37:58;;;;;;;0.50;0.47;;;;;;;9.03;62.80;97860.19;10430060;28;20049;-67
2023/03/14 11:43:04;;;;;;;1.60;0.70;;;;;;;8.92;62.33;97881.13;10455024;28;20059;-67
2023/03/14 11:48:27;;;;;;;1.80;0.90;;;;;;;9.05;62.06;97895.63;10441719;28;20064;-67
2023/03/14 11:53:44;;;;;;;1.17;0.70;;;;;;;8.81;61.54;97929.00;10425429;28;20514;-68
2023/03/14 11:59:01;;;;;;;1.42;0.65;;;;;;;8.84;61.93;97937.38;10432118;28;20175;-68
2023/03/14 12:04:21;;;;;;;1.70;1.08;;;;;;;9.16;61.90;97958.09;10411429;28;20115;-68
2023/03/14 12:09:24;;;;;;;0.93;0.70;;;;;;;9.27;61.74;97965.84;10427800;28;20056;-68
2023/03/14 12:14:33;;;;;;;1.25;0.90;;;;;;;9.53;61.22;97984.47;10439453;28;20908;-68
2023/03/14 12:19:37;;;;;;;1.67;1.10;;;;;;;9.53;60.28;97993.13;10428798;28;20053;-68
2023/03/14 12:24:49;;;;;;;1.33;0.90;;;;;;;9.60;59.51;98006.47;10439571;28;20052;-67
2023/03/14 12:29:59;;;;;;;1.48;0.88;;;;;;;10.07;59.40;98008.44;10439021;28;20057;-67
2023/03/14 12:35:34;;;;;;;1.70;1.10;;;;;;;9.96;58.41;98025.97;10446936;28;20509;-68
2023/03/14 12:40:41;;;;;;;3.17;1.30;;;;;;;9.69;59.18;98031.00;10428201;28;20048;-68
2023/03/14 12:46:17;;;;;;;2.50;1.48;;;;;;;10.29;58.13;98039.53;10431701;28;20059;-68
2023/03/14 12:51:28;;;;;;;2.05;1.15;;;;;;;10.35;57.58;98049.44;10424607;28;20144;-68
2023/03/14 12:56:46;;;;;;;3.27;1.60;;;;;;;10.01;58.15;98060.38;10427613;28;20049;-68
2023/03/14 13:01:59;;;;;;;2.55;1.30;;;;;;;10.07;57.05;98088.56;10427828;28;20048;-68
2023/03/14 13:07:04;;;;;;;4.88;1.30;;;;;;;9.73;58.08;98115.91;10430956;28;20049;-68
2023/03/14 13:12:13;;;;;;;1.58;1.20;;;;;;;9.37;58.82;98114.56;10423979;28;20041;-68
2023/03/14 13:17:19;;;;;;;1.98;1.30;;;;;;;9.98;57.49;98120.69;10442353;28;20053;-68
2023/03/14 13:22:39;;;;;;;1.92;1.20;;;;;;;9.96;57.55;98140.88;10441667;28;20055;-67
2023/03/14 13:27:42;;;;;;;1.40;0.90;;;;;;;9.99;56.54;98172.78;10453465;28;20424;-68
2023/03/14 13:32:47;;;;;;;2.08;1.10;;;;;;;9.83;56.34;98208.97;10430978;28;20055;-69
2023/03/14 13:37:55;;;;;;;1.50;0.90;;;;;;;8.26;59.93;98257.44;10430399;28;20088;-68
2023/03/14 13:43:16;;;;;;;1.02;0.82;;;;;;;7.79;62.01;98274.81;10430964;28;20497;-68
2023/03/14 13:48:18;;;;;;;1.13;0.90;;;;;;;8.16;60.50;98274.72;10433136;28;20297;-68
2023/03/14 13:53:20;;;;;;;1.92;1.00;;;;;;;8.27;61.34;98292.94;10434383;28;20515;-67
2023/03/14 13:58:25;;;;;;;2.67;1.40;;;;;;;8.70;59.85;98315.59;10434977;28;20075;-68
2023/03/14 14:03:30;;;;;;;2.22;1.35;;;;;;;8.72;59.70;98323.28;10433733;28;20092;-68
2023/03/14 14:08:33;;;;;;;1.15;1.05;;;;;;;8.55;59.33;98336.75;10421603;28;20052;-69
2023/03/14 14:13:37;;;;;;;3.83;2.08;;;;;;;8.94;59.07;98357.16;10459526;28;20047;-69
2023/03/14 14:18:39;;;;;;;2.80;1.30;;;;;;;8.67;59.83;98377.50;10442017;28;20063;-69
2023/03/14 14:23:42;;;;;;;2.00;1.40;;;;;;;8.90;59.19;98394.84;10432341;28;20053;-69
2023/03/14 14:28:45;;;;;;;2.53;1.67;;;;;;;8.57;59.79;98418.25;10430166;28;20056;-70
2023/03/14 14:33:58;;;;;;;4.38;2.00;;;;;;;8.36;60.82;98444.16;10438183;28;20153;-69
2023/03/14 14:39:05;;;;;;;3.00;1.85;;;;;;;8.11;60.48;98459.06;10430218;28;20052;-69
2023/03/14 14:44:07;;;;;;;4.47;2.10;;;;;;;7.85;60.74;98479.97;10430198;28;20221;-69
2023/03/14 14:49:15;;;;;;;6.05;2.50;;;;;;;7.77;62.15;98497.91;10444121;28;20052;-69
2023/03/14 14:54:31;;;;;;;5.53;2.33;;;;;;;7.82;61.90;98508.84;10432491;28;20080;-69
2023/03/14 14:59:43;;;;;;;3.97;1.63;;;;;;;7.59;63.41;98524.41;10428159;28;20056;-70
2023/03/14 15:04:47;;;;;;;2.67;1.27;;;;;;;7.31;62.28;98545.44;10419004;28;20052;-69
2023/03/14 15:09:48;;;;;;;1.80;1.30;;;;;;;7.21;63.01;98553.03;10430539;28;20056;-69
2023/03/14 15:14:50;;;;;;;3.03;1.50;;;;;;;7.34;62.69;98566.06;10432332;28;20470;-68
2023/03/14 15:19:55;;;;;;;3.60;1.25;;;;;;;7.28;62.53;98569.06;10433851;28;20752;-69
2023/03/14 15:24:56;;;;;;;3.80;1.40;;;;;;;7.27;62.05;98583.84;10434875;28;20052;-68
2023/03/14 15:30:00;;;;;;;3.50;1.77;;;;;;;7.11;62.55;98596.19;10444248;28;20091;-69
2023/03/14 15:35:02;;;;;;;2.30;1.58;;;;;;;6.95;62.75;98600.75;10434893;28;20052;-68
2023/03/14 15:40:13;;;;;;;4.90;1.90;;;;;;;6.93;62.93;98616.47;10430495;28;20057;-69
2023/03/14 15:45:16;;;;;;;4.03;2.20;;;;;;;6.85;62.85;98633.47;10428853;28;20727;-69
2023/03/14 15:50:18;;;;;;;3.80;1.80;;;;;;;6.53;62.74;98642.50;10449150;28;20045;-69
2023/03/14 15:55:20;;;;;;;3.67;1.55;;;;;;;6.58;62.65;98658.63;10443415;28;20052;-69
2023/03/14 16:00:24;;;;;;;2.83;1.50;;;;;;;6.26;63.08;98676.25;10431510;28;20716;-69
2023/03/14 16:05:27;;;;;;;3.22;1.40;;;;;;;6.18;63.51;98691.41;10430910;28;20052;-68
2023/03/14 16:10:30;;;;;;;2.58;1.20;;;;;;;5.99;63.39;98702.09;10424686;28;20044;-69
2023/03/14 16:15:34;;;;;;;1.25;1.00;;;;;;;6.00;63.22;98708.13;10438699;28;20131;-68
2023/03/14 16:20:36;;;;;;;2.03;1.00;;;;;;;6.04;63.07;98717.38;10428658;28;20068;-69
2023/03/14 16:25:49;;;;;;;1.27;0.90;;;;;;;6.00;63.20;98732.28;10448186;28;20565;-68
2023/03/14 16:30:51;;;;;;;2.92;1.30;;;;;;;5.96;63.70;98740.38;10411297;28;20413;-69
2023/03/14 16:35:56;;;;;;;3.05;1.35;;;;;;;5.89;64.15;98750.28;10426422;28;20052;-69
2023/03/14 16:41:01;;;;;;;4.65;1.58;;;;;;;6.03;63.87;98768.44;10419245;28;20413;-69
2023/03/14 16:46:05;;;;;;;2.67;1.52;;;;;;;5.90;64.13;98783.06;10434585;28;20112;-69
2023/03/14 16:51:08;;;;;;;3.67;1.60;;;;;;;5.95;64.17;98809.59;10446061;28;20045;-69
2023/03/14 16:56:11;;;;;;;3.28;1.63;;;;;;;5.67;64.11;98851.03;10426479;28;20049;-69
2023/03/14 17:01:16;;;;;;;6.82;1.83;;;;;;;5.16;62.75;98856.53;10440570;28;20492;-69
2023/03/14 17:06:25;;;;;;;8.57;2.00;;;;;;;4.82;62.68;98836.78;10425890;28;20063;-69
2023/03/14 17:11:27;;;;;;;10.38;2.40;;;;;;;4.99;62.65;98839.31;10424827;28;20501;-69
2023/03/14 17:16:29;;;;;;;10.75;2.38;;;;;;;4.99;62.52;98861.78;10421586;28;20307;-69
2023/03/14 17:21:31;;;;;;;12.07;2.42;;;;;;;4.63;63.15;98877.53;10419867;28;20053;-69
2023/03/14 17:26:33;;;;;;;6.95;2.08;;;;;;;4.48;63.87;98894.69;10424303;28;20053;-63
2023/03/14 17:31:34;;;;;;;6.40;1.90;;;;;;;4.34;63.81;98896.31;10419545;28;20071;-62
2023/03/14 17:36:36;;;;;;;6.72;1.90;;;;;;;4.46;64.31;98909.47;10423030;28;20044;-62
2023/03/14 17:41:38;;;;;;;5.45;2.10;;;;;;;4.41;64.58;98919.22;10405375;28;20060;-62
2023/03/14 17:46:40;;;;;;;8.93;2.25;;;;;;;4.39;65.03;98941.75;10420114;28;20071;-62
2023/03/14 17:51:41;;;;;;;7.40;2.70;;;;;;;4.33;65.15;98952.41;10418512;28;20056;-62
2023/03/14 17:56:43;;;;;;;8.38;3.00;;;;;;;4.25;65.79;98966.66;10420082;28;20041;-62
2023/03/14 18:01:45;;;;;;;8.57;3.28;;;;;;;4.23;65.85;98981.44;10420865;28;20047;-63
2023/03/14 18:06:47;;;;;;;12.23;3.72;;;;;;;4.27;65.88;99001.88;10423076;28;20183;-62
2023/03/14 18:11:48;;;;;;;12.65;3.28;;;;;;;4.21;66.61;99022.88;10415519;28;20174;-62
2023/03/14 18:17:02;;;;;;;11.05;4.05;;;;;;;4.10;66.81;99022.59;10422040;28;20048;-63
2023/03/14 18:22:05;;;;;;;10.98;4.38;;;;;;;4.22;66.62;99026.31;10426481;28;20169;-62
2023/03/14 18:27:07;;;;;;;13.77;4.00;;;;;;;4.37;65.89;99018.66;10404740;28;20139;-62
2023/03/14 18:32:10;;;;;;;8.55;3.03;;;;;;;4.54;64.53;99041.13;10422640;28;20036;-63
2023/03/14 18:37:12;;;;;;;9.10;3.00;;;;;;;4.44;63.48;99058.03;10424368;28;20667;-63
2023/03/14 18:42:14;;;;;;;10.65;2.63;;;;;;;4.42;63.13;99071.03;10423445;28;20596;-63
2023/03/14 18:47:16;;;;;;;8.63;3.17;;;;;;;4.36;63.17;99076.53;10438501;28;20063;-63
2023/03/14 18:52:18;;;;;;;11.20;2.75;;;;;;;4.36;62.86;99080.84;10425638;28;20044;-63
2023/03/14 18:57:20;;;;;;;9.30;2.40;;;;;;;4.32;63.33;99089.69;10442442;28;20512;-63
2023/03/14 19:02:24;;;;;;;10.50;2.70;;;;;;;4.29;63.58;99088.06;10424812;28;20045;-62
2023/03/14 19:07:26;;;;;;;8.20;2.67;;;;;;;4.27;63.47;99102.00;10431555;28;20117;-62
2023/03/14 19:12:28;;;;;;;12.20;4.45;;;;;;;4.15;63.60;99102.59;10408624;28;20053;-62
2023/03/14 19:17:30;;;;;;;6.13;2.50;;;;;;;4.07;63.72;99113.28;10424405;28;20051;-63
2023/03/14 19:22:32;;;;;;;10.65;3.00;;;;;;;4.03;63.45;99116.91;10433906;28;20706;-62
2023/03/14 19:27:34;;;;;;;10.07;3.10;;;;;;;4.00;63.61;99130.00;10430798;28;20080;-63
2023/03/14 19:32:36;;;;;;;9.52;2.83;;;;;;;3.95;63.73;99142.31;10427781;28;20052;-61
2023/03/14 19:37:38;;;;;;;12.00;3.42;;;;;;;3.96;63.97;99149.16;10425371;28;20048;-62
2023/03/14 19:42:41;;;;;;;6.85;2.97;;;;;;;3.99;63.89;99171.44;10428946;28;20048;-63
2023/03/14 19:47:43;;;;;;;12.55;3.20;;;;;;;3.97;64.13;99171.53;10428341;28;20045;-62
2023/03/14 19:52:46;;;;;;;15.52;3.67;;;;;;;3.96;64.30;99185.38;10404779;28;20213;-63
2023/03/14 19:57:48;;;;;;;12.13;3.42;;;;;;;4.01;64.16;99183.41;10434148;28;20044;-62
2023/03/14 20:02:51;;;;;;;10.60;3.38;;;;;;;4.09;64.39;99193.44;10424991;28;20055;-62
2023/03/14 20:07:53;;;;;;;9.75;3.10;;;;;;;4.02;64.22;99204.97;10427897;28;20048;-62
2023/03/14 20:12:56;;;;;;;15.77;3.90;;;;;;;3.95;64.62;99214.72;10422785;28;21581;-62
2023/03/14 20:17:58;;;;;;;11.48;3.15;;;;;;;3.94;64.63;99230.31;10434138;28;20045;-63
2023/03/14 20:22:59;;;;;;;12.15;3.35;;;;;;;3.81;65.13;99243.75;10425034;28;20714;-62
2023/03/14 20:28:03;;;;;;;15.52;3.90;;;;;;;3.81;65.04;99255.84;10430732;28;20063;-63
2023/03/14 20:33:04;;;;;;;9.43;3.30;;;;;;;3.65;65.73;99260.00;10435767;28;20366;-62
2023/03/14 20:38:08;;;;;;;15.80;4.50;;;;;;;3.72;65.62;99277.75;10426890;28;20049;-63
2023/03/14 20:43:09;;;;;;;14.32;3.80;;;;;;;3.67;65.53;99295.22;10427084;28;20048;-62
2023/03/14 20:48:11;;;;;;;14.65;3.97;;;;;;;3.86;65.25;99303.91;10422988;28;20076;-62
2023/03/14 20:53:13;;;;;;;14.70;4.68;;;;;;;3.87;64.49;99299.59;10424452;28;20064;-62
2023/03/14 20:58:15;;;;;;;11.73;4.18;;;;;;;3.99;64.43;99306.81;10430448;28;20789;-63
2023/03/14 21:03:17;;;;;;;13.45;4.60;;;;;;;4.07;64.29;99312.50;10427326;28;20234;-63
2023/03/14 21:08:22;;;;;;;17.10;3.47;;;;;;;4.16;63.31;99322.47;10427664;28;20053;-62
2023/03/14 21:13:24;;;;;;;12.20;3.28;;;;;;;4.22;62.98;99326.53;10431486;28;20049;-62
2023/03/14 21:18:26;;;;;;;13.98;3.00;;;;;;;4.25;62.05;99337.59;10425916;28;20041;-62
2023/03/14 21:23:33;;;;;;;14.15;3.45;;;;;;;4.24;62.12;99346.28;10428250;28;20045;-63
2023/03/14 21:28:36;;;;;;;15.38;3.60;;;;;;;4.14;61.45;99359.66;10428397;28;20049;-63
2023/03/14 21:33:38;;;;;;;18.98;3.35;;;;;;;4.17;61.29;99355.19;10432855;28;20244;-62
2023/03/14 21:38:40;;;;;;;18.40;3.30;;;;;;;4.09;60.97;99366.81;10430198;28;20053;-63
2023/03/14 21:43:44;;;;;;;13.43;2.92;;;;;;;4.04;60.28;99367.00;10426481;28;20068;-62
2023/03/14 21:48:48;;;;;;;11.95;3.22;;;;;;;3.98;60.54;99389.69;10430632;28;20048;-62
2023/03/14 21:53:50;;;;;;;10.23;2.97;;;;;;;3.94;59.85;99391.56;10434943;28;20041;-62
2023/03/14 21:58:57;;;;;;;14.82;3.17;;;;;;;3.95;59.93;99400.13;10433211;28;20572;-63
2023/03/14 22:03:59;;;;;;;19.38;2.85;;;;;;;3.80;58.43;99414.53;10433807;28;20049;-63
2023/03/14 22:09:02;;;;;;;13.88;3.63;;;;;;;3.65;58.10;99417.72;10434123;28;20048;-63
2023/03/14 22:14:04;;;;;;;12.75;2.58;;;;;;;3.58;58.07;99427.47;10435144;28;20055;-62
2023/03/14 22:19:07;;;;;;;15.25;2.85;;;;;;;3.58;57.98;99444.72;10432487;28;20044;-62
2023/03/14 22:24:09;;;;;;;12.45;2.88;;;;;;;3.44;57.87;99449.56;10436126;28;20088;-62
2023/03/14 22:29:12;;;;;;;8.90;2.30;;;;;;;3.32;58.08;99453.47;10433664;28;20053;-61
2023/03/14 22:34:14;;;;;;;11.35;2.22;;;;;;;3.26;57.60;99466.63;10435529;28;20053;-63
2023/03/14 22:39:17;;;;;;;15.68;2.70;;;;;;;3.18;57.75;99480.72;10431175;28;20049;-62
2023/03/14 22:44:21;;;;;;;11.05;2.35;;;;;;;3.10;57.62;99490.50;10436656;28;20060;-62
2023/03/14 22:49:23;;;;;;;10.07;2.40;;;;;;;3.01;58.26;99500.28;10432876;28;20045;-62
2023/03/14 22:54:25;;;;;;;16.40;2.75;;;;;;;2.93;57.59;99504.88;10432788;28;20044;-62
2023/03/14 22:59:27;;;;;;;11.27;2.25;;;;;;;2.82;57.48;99501.84;10429224;28;20413;-61
2023/03/14 23:04:30;;;;;;;8.52;2.30;;;;;;;2.79;58.23;99501.94;10430785;28;20048;-61
2023/03/14 23:09:32;;;;;;;12.52;3.30;;;;;;;2.63;58.32;99511.13;10432082;28;20049;-61
2023/03/14 23:14:33;;;;;;;11.90;2.80;;;;;;;2.53;58.99;99517.47;10443936;28;20825;-62
2023/03/14 23:19:37;;;;;;;15.60;2.92;;;;;;;2.40;59.33;99520.53;10426547;28;20048;-62
2023/03/14 23:24:39;;;;;;;12.57;2.78;;;;;;;2.25;60.19;99531.34;10437277;28;20404;-62
2023/03/14 23:29:40;;;;;;;15.48;3.25;;;;;;;2.15;60.50;99538.56;10433091;28;20056;-62
2023/03/14 23:34:43;;;;;;;13.00;3.53;;;;;;;2.07;60.98;99545.69;10430908;28;20413;-61
2023/03/14 23:39:45;;;;;;;17.25;3.10;;;;;;;2.01;61.30;99546.69;10425987;28;20489;-62
2023/03/14 23:44:46;;;;;;;14.13;3.00;;;;;;;1.91;61.76;99552.22;10429366;28;20043;-62